• Join FlightAware (Why Join?)
  • Login
  • US Flag 
04:49AM EDT


 

Airport Tracker/Info


-or-


 

Live Flight TrackerFlight Track Log ✈ ASH3770 ✈ 02-Jul-2013 ✈ KIAD - KORF

Flight Track Log - Related Links

Times and Time Zones

All times are in EDT time to prevent confusion due to time zone crossing. See the ASH3770 flight status page for this flight to view local times or setup timezone preferences in your user account.

Time Position Orientation Groundspeed Altitude Reporting Facility
EDT Latitude Longitude Course Direction KTS MPH feet Rate Location/Type
04:38PM 38.9500 -77.5000 100° East 176 203 1,600  Level Potomac TRACON
04:39PM 39.0000 -77.5500 322° Northwest 237 273 4,000 2,460 Climbing Potomac TRACON
04:40PM 39.0667 -77.5167 21° North 269 310 6,600 2,400 Climbing Potomac TRACON
04:41PM 38.6267 -77.2580 124° Southeast  Level Estimated
04:41PM 39.1167 -77.4500 46° Northeast 290 334 8,900  Level Potomac TRACON
04:42PM 38.6110 -77.1455 100° East  Level FlightAware Approximate
04:42PM 39.1667 -77.3500 57° Northeast 338 389 10,000  Level Potomac TRACON
04:43PM 38.5951 -77.0330 100° East  Level FlightAware Approximate
04:43PM 39.1500 -77.2333 100° East 372 428 11,000  Level Potomac TRACON
04:44PM 39.1167 -77.1167 110° East 363 418 13,700 1,020 Climbing Potomac TRACON
04:46PM 39.0081 -76.9300 127° Southeast 376 433 14,000 60 Climbing Washington Center
04:47PM 38.9106 -76.8856 160° South 355 409 14,000  Level Washington Center
04:48PM 38.8150 -76.8439 161° South 355 409 14,000  Level Washington Center
04:49PM 38.7197 -76.7997 160° South 366 421 14,000  Level Washington Center
04:50PM 38.6222 -76.7583 162° South 366 421 14,000  Level Washington Center
04:51PM 38.5244 -76.7247 165° South 366 421 14,000  Level Washington Center
04:52PM 38.4267 -76.7100 173° South 366 421 14,000  Level Washington Center
04:53PM 38.3225 -76.6981 175° South 366 421 14,000  Level Washington Center
04:54PM 38.2328 -76.6808 171° South 366 421 14,000 -240 Level Washington Center
04:55PM 38.1203 -76.6686 175° South 366 421 13,600 -1,020 Descending Washington Center
04:56PM 38.0244 -76.6619 177° South 361 415 12,000 -1,620 Descending Washington Center
04:57PM 37.9436 -76.6003 149° Southeast 334 384 10,500 -960 Descending Washington Center
04:58PM 37.8506 -76.5333 150° Southeast 356 410 10,000 -300 Descending Washington Center
04:59PM 37.7800 -76.4747 147° Southeast 344 396 10,000  Level Washington Center
05:00PM 37.6992 -76.4081 147° Southeast 344 396 10,000  Level Washington Center
05:01PM 37.5994 -76.3361 150° Southeast 357 411 10,000  Level Washington Center
05:02PM 37.5203 -76.3067 164° South 350 403 10,000  Level Washington Center
05:03PM 37.4286 -76.2822 168° South 350 403 10,000  Level Washington Center
05:04PM 37.3453 -76.2581 167° South 332 382 10,000 -240 Level Washington Center
05:05PM 37.2808 -76.2392 167° South 287 330 9,600 -1,860 Descending Washington Center
05:06PM 37.2267 -76.2231 167° South 237 273 6,300 -2,820 Descending Washington Center
05:07PM 37.1725 -76.2069 167° South 210 242 3,900 -1,200 Descending Washington Center
05:08PM 37.1289 -76.1703 146° Southeast 193 222 3,900 -720 Level Washington Center
05:09PM 37.0686 -76.1333 154° Southeast 204 235 2,400 -1,020 Descending Washington Center
05:10PM 37.0144 -76.1225 171° South 190 219 1,700 -720 Descending Washington Center